createdAt,value
2019-01-13T00:00:36.876Z,100730.17
2019-01-13T00:06:42.664Z,100720.98
2019-01-13T00:12:48.325Z,100724.09
2019-01-13T00:18:57.487Z,100724.05
2019-01-13T00:25:03.715Z,100710.08
2019-01-13T00:31:22.690Z,100709.19
2019-01-13T00:37:28.572Z,100717.97
2019-01-13T00:43:34.464Z,100722.81
2019-01-13T00:49:40.166Z,100725.84
2019-01-13T00:55:45.854Z,100726.34
2019-01-13T01:01:52.055Z,100709.70
2019-01-13T01:07:57.762Z,100702.67
2019-01-13T01:14:03.500Z,100693.07
2019-01-13T01:20:13.642Z,100684.70
2019-01-13T01:26:19.400Z,100682.52
2019-01-13T01:32:25.556Z,100687.77
2019-01-13T01:38:31.321Z,100693.48
2019-01-13T01:44:37.042Z,100679.02
2019-01-13T01:50:42.758Z,100668.55
2019-01-13T01:56:48.539Z,100665.90
2019-01-13T02:02:54.783Z,100664.17
2019-01-13T02:09:01.009Z,100656.27
2019-01-13T02:15:10.198Z,100647.98
2019-01-13T02:21:16.085Z,100618.64
2019-01-13T02:27:21.866Z,100609.88
2019-01-13T02:33:27.731Z,100612.52
2019-01-13T02:39:34.072Z,100608.99
2019-01-13T02:45:39.825Z,100597.17
2019-01-13T02:51:45.562Z,100610.73
2019-01-13T02:57:51.320Z,100609.02
2019-01-13T03:03:57.037Z,100609.87
2019-01-13T03:10:03.754Z,100630.84
2019-01-13T03:16:09.516Z,100642.22
2019-01-13T03:22:15.623Z,100622.12
2019-01-13T03:28:21.378Z,100624.73
2019-01-13T03:34:27.521Z,100614.67
2019-01-13T03:40:33.247Z,100580.11
2019-01-13T03:46:38.962Z,100570.06
2019-01-13T03:52:52.435Z,100552.56
2019-01-13T03:58:52.180Z,100531.55
2019-01-13T04:04:57.932Z,100512.73
2019-01-13T04:11:03.645Z,100512.30
2019-01-13T04:17:09.809Z,100514.95
2019-01-13T04:23:15.503Z,100496.57
2019-01-13T04:29:21.348Z,100485.17
2019-01-13T04:35:27.105Z,100469.86
2019-01-13T04:41:32.836Z,100469.41
2019-01-13T04:47:38.637Z,100451.47
2019-01-13T04:53:44.399Z,100427.84
2019-01-13T04:59:50.151Z,100415.59
2019-01-13T05:05:55.985Z,100410.78
2019-01-13T05:12:01.706Z,100383.20
2019-01-13T05:18:07.408Z,100390.66
2019-01-13T05:24:13.120Z,100365.70
2019-01-13T05:30:23.970Z,100356.06
2019-01-13T05:36:29.656Z,100337.23
2019-01-13T05:42:35.423Z,100336.38
2019-01-13T05:48:41.147Z,100319.77
2019-01-13T05:54:46.985Z,100315.36
2019-01-13T06:00:52.807Z,100317.11
2019-01-13T06:06:58.546Z,100325.40
2019-01-13T06:13:04.291Z,100321.44
2019-01-13T06:19:10.015Z,100321.03
2019-01-13T06:25:17.541Z,100313.58
2019-01-13T06:31:23.276Z,100307.00
2019-01-13T06:37:28.969Z,100297.81
2019-01-13T06:43:34.782Z,100292.54
2019-01-13T06:49:40.507Z,100281.16
2019-01-13T06:55:46.265Z,100284.66
2019-01-13T07:01:52.026Z,100275.00
2019-01-13T07:07:57.747Z,100264.52
2019-01-13T07:14:03.506Z,100268.88
2019-01-13T07:27:25.613Z,100245.62
2019-01-13T07:33:31.600Z,100240.37
2019-01-13T07:39:37.378Z,100232.46
2019-01-13T07:45:43.160Z,100222.82
2019-01-13T07:51:48.978Z,100225.45
2019-01-13T07:57:55.070Z,100217.56
2019-01-13T08:04:00.866Z,100217.53
2019-01-13T08:10:10.687Z,100214.01
2019-01-13T08:16:16.459Z,100199.97
2019-01-13T08:22:23.442Z,100199.90
2019-01-13T08:28:31.042Z,100200.27
2019-01-13T08:34:36.816Z,100196.66
2019-01-13T08:47:17.537Z,100188.38
2019-01-13T08:53:23.309Z,100181.83
2019-01-13T08:59:29.089Z,100187.50
2019-01-13T09:05:34.962Z,100166.84
2019-01-13T09:11:40.885Z,100177.39
2019-01-13T09:17:46.667Z,100155.50
2019-01-13T09:23:52.448Z,100145.35
2019-01-13T09:29:59.070Z,100154.59
2019-01-13T09:36:05.175Z,100129.13
2019-01-13T09:42:11.209Z,100130.42
2019-01-13T09:48:17.613Z,100131.24
2019-01-13T09:54:23.349Z,100133.01
2019-01-13T10:00:40.642Z,100124.66
2019-01-13T10:06:46.593Z,100106.66
2019-01-13T10:12:52.499Z,100082.09
2019-01-13T10:18:59.791Z,100102.72
2019-01-13T10:25:09.129Z,100109.29
2019-01-13T10:31:15.390Z,100099.23
2019-01-13T10:37:21.232Z,100092.20
2019-01-13T10:43:27.112Z,100081.67
2019-01-13T10:49:32.994Z,100049.20
2019-01-13T10:55:38.857Z,100036.45
2019-01-13T11:01:44.674Z,100019.34
2019-01-13T11:07:50.528Z,100023.64
2019-01-13T11:13:56.440Z,100005.17
2019-01-13T11:20:02.255Z,100003.05
2019-01-13T11:26:08.018Z,99990.83
2019-01-13T11:32:13.839Z,99984.65
2019-01-13T11:38:19.593Z,99970.23
2019-01-13T11:44:29.798Z,99967.56
2019-01-13T11:50:35.573Z,99947.42
2019-01-13T11:56:41.338Z,99939.59
2019-01-13T12:02:47.251Z,99942.56
2019-01-13T12:08:53.734Z,99914.03
2019-01-13T12:14:59.850Z,99920.64
2019-01-13T12:21:05.629Z,99911.06
2019-01-13T12:27:11.395Z,99905.36
2019-01-13T12:33:24.347Z,99899.67
2019-01-13T12:39:25.151Z,99877.73
2019-01-13T12:45:32.878Z,99867.20
2019-01-13T12:51:38.647Z,99882.04
2019-01-13T12:57:44.925Z,99858.02
2019-01-13T13:03:50.888Z,99861.09
2019-01-13T13:09:56.735Z,99847.07
2019-01-13T13:16:04.120Z,99838.27
2019-01-13T13:22:09.955Z,99822.90
2019-01-13T13:28:15.745Z,99806.31
2019-01-13T13:34:21.680Z,99802.83
2019-01-13T13:40:28.244Z,99791.85
2019-01-13T13:46:34.189Z,99803.63
2019-01-13T13:52:40.063Z,99781.34
2019-01-13T13:58:47.022Z,99758.99
2019-01-13T14:04:52.886Z,99756.45
2019-01-13T14:10:58.591Z,99751.10
2019-01-13T14:17:04.538Z,99756.36
2019-01-13T14:23:10.433Z,99755.95
2019-01-13T14:29:16.330Z,99747.14
2019-01-13T14:35:22.687Z,99736.66
2019-01-13T14:41:28.734Z,99737.08
2019-01-13T14:47:34.770Z,99736.66
2019-01-13T14:53:40.923Z,99746.30
2019-01-13T14:59:46.930Z,99720.94
2019-01-13T15:05:52.758Z,99738.02
2019-01-13T15:11:58.528Z,99744.67
2019-01-13T15:18:04.615Z,99718.39
2019-01-13T15:24:10.890Z,99735.02
2019-01-13T15:30:23.241Z,99745.09
2019-01-13T15:36:29.439Z,99736.27
2019-01-13T15:42:36.656Z,99738.05
2019-01-13T15:48:42.554Z,99742.90
2019-01-13T15:54:48.658Z,99732.75
2019-01-13T16:00:54.696Z,99726.96
2019-01-13T16:07:01.107Z,99723.92
2019-01-13T16:13:08.038Z,99714.72
2019-01-13T16:19:13.812Z,99719.98
2019-01-13T16:25:19.727Z,99714.66
2019-01-13T16:31:25.537Z,99701.49
2019-01-13T16:37:31.616Z,99701.03
2019-01-13T16:43:37.444Z,99708.55
2019-01-13T16:49:43.188Z,99695.30
2019-01-13T16:55:49.635Z,99684.41
2019-01-13T17:01:55.774Z,99683.09
2019-01-13T17:08:02.391Z,99661.98
2019-01-13T17:14:08.466Z,99652.31
2019-01-13T17:20:21.584Z,99645.36
2019-01-13T17:26:27.432Z,99650.95
2019-01-13T17:32:33.682Z,99661.50
2019-01-13T17:38:39.497Z,99648.13
2019-01-13T17:45:59.629Z,99650.42
2019-01-13T17:52:07.457Z,99645.70
2019-01-13T17:58:15.411Z,99637.41
2019-01-13T18:04:23.338Z,99640.41
2019-01-13T18:17:51.427Z,99638.56
2019-01-13T18:23:57.440Z,99720.42
2019-01-13T18:30:03.237Z,99720.81
2019-01-13T18:36:09.055Z,99703.56
2019-01-13T18:42:14.908Z,99716.86
2019-01-13T18:48:20.871Z,99703.95
2019-01-13T18:54:26.691Z,99693.61
2019-01-13T19:00:32.474Z,99700.20
2019-01-13T19:06:38.224Z,99711.15
2019-01-13T19:12:44.289Z,99711.06
2019-01-13T19:18:50.714Z,99703.98
2019-01-13T19:25:27.649Z,99720.09
2019-01-13T19:31:33.470Z,99716.55
2019-01-13T19:37:39.284Z,99722.20
2019-01-13T19:43:45.238Z,99728.77
2019-01-13T19:49:51.113Z,99730.94
2019-01-13T19:55:56.854Z,99731.80
2019-01-13T20:02:02.973Z,99747.08
2019-01-13T20:08:08.847Z,99752.73
2019-01-13T20:14:14.858Z,99743.95
2019-01-13T20:20:21.128Z,99751.36
2019-01-13T20:26:26.939Z,99759.73
2019-01-13T20:32:32.694Z,99764.98
2019-01-13T20:38:38.465Z,99775.07
2019-01-13T20:44:44.407Z,99786.55
2019-01-13T20:50:50.264Z,99787.98
2019-01-13T20:56:56.037Z,99789.27
2019-01-13T21:03:01.983Z,99790.53
2019-01-13T21:09:11.071Z,99793.06
2019-01-13T21:15:21.544Z,99812.25
2019-01-13T21:21:28.403Z,99824.45
2019-01-13T21:27:34.291Z,99830.59
2019-01-13T21:33:40.114Z,99827.61
2019-01-13T21:39:45.834Z,99839.04
2019-01-13T21:45:51.738Z,99830.72
2019-01-13T21:51:57.687Z,99846.00
2019-01-13T21:58:03.403Z,99845.97
2019-01-13T22:04:11.714Z,99839.83
2019-01-13T22:10:19.849Z,99852.12
2019-01-13T22:16:25.672Z,99832.48
2019-01-13T22:22:32.128Z,99843.08
2019-01-13T22:28:37.993Z,99849.67
2019-01-13T22:34:44.107Z,99868.47
2019-01-13T22:40:50.081Z,99867.16
2019-01-13T22:46:55.824Z,99872.47
2019-01-13T22:53:02.021Z,99872.91
2019-01-13T22:59:07.958Z,99887.77
2019-01-13T23:05:13.905Z,99876.45
2019-01-13T23:11:19.625Z,99879.55
2019-01-13T23:17:25.477Z,99887.82
2019-01-13T23:23:31.446Z,99916.70
2019-01-13T23:29:37.566Z,99912.30
2019-01-13T23:35:43.398Z,99924.09
2019-01-13T23:41:49.381Z,99927.11
2019-01-13T23:47:55.100Z,99941.09
2019-01-13T23:54:00.830Z,99937.59
